Time;durP1;ratioP1;P1;durP2;ratioP2;P2;SDS_P1;SDS_P2;PMS_P1;PMS_P2;Temp;Humidity;BMP_temperature;BMP_pressure;BME280_temperature;BME280_humidity;BME280_pressure;Samples;Min_cycle;Max_cycle;Signal;HPM_P1;HPM_P2
2022/04/23 00:01:18;;;;;;;10.52;5.28;;;22.10;99.90;;;;;;5074053;28;20052;-49
2022/04/23 00:03:44;;;;;;;7.28;5.07;;;22.10;99.90;;;;;;5074200;28;20048;-49
2022/04/23 00:06:09;;;;;;;7.55;4.60;;;22.10;99.90;;;;;;5074141;28;20025;-52
2022/04/23 00:08:35;;;;;;;6.63;4.45;;;22.10;99.90;;;;;;5072461;28;20029;-52
2022/04/23 00:11:01;;;;;;;5.65;4.30;;;22.10;99.90;;;;;;5073911;28;20028;-50
2022/04/23 00:13:27;;;;;;;6.15;4.55;;;22.10;99.90;;;;;;5073799;28;20074;-50
2022/04/23 00:15:53;;;;;;;8.18;4.95;;;22.00;99.90;;;;;;5072499;28;20032;-50
2022/04/23 00:18:19;;;;;;;6.15;4.22;;;22.00;99.90;;;;;;5072573;28;20025;-50
2022/04/23 00:20:46;;;;;;;5.80;4.20;;;22.10;99.90;;;;;;5073531;28;20385;-49
2022/04/23 00:23:13;;;;;;;8.35;4.45;;;22.00;99.90;;;;;;5073845;28;20086;-50
2022/04/23 00:25:39;;;;;;;7.75;4.63;;;22.00;99.90;;;;;;5073511;28;20476;-50
2022/04/23 00:28:06;;;;;;;7.25;4.32;;;22.00;99.90;;;;;;5073843;28;21011;-50
2022/04/23 00:30:33;;;;;;;7.47;3.70;;;22.00;99.90;;;;;;5073438;28;20040;-49
2022/04/23 00:33:03;;;;;;;9.35;4.55;;;22.00;99.90;;;;;;5073019;28;20135;-49
2022/04/23 00:35:29;;;;;;;6.15;3.92;;;22.00;99.90;;;;;;5073522;28;20028;-49
2022/04/23 00:37:55;;;;;;;6.60;3.83;;;22.00;99.90;;;;;;5072306;28;20036;-50
2022/04/23 00:40:24;;;;;;;5.70;3.42;;;22.00;99.90;;;;;;5073277;28;20029;-50
2022/04/23 00:42:56;;;;;;;4.97;4.00;;;22.00;99.90;;;;;;5073208;28;20032;-49
2022/04/23 00:45:23;;;;;;;5.93;3.83;;;22.00;99.90;;;;;;5073140;28;20480;-50
2022/04/23 00:47:50;;;;;;;4.93;3.58;;;22.00;99.90;;;;;;5073350;28;20424;-51
2022/04/23 00:50:21;;;;;;;5.50;3.60;;;22.00;99.90;;;;;;5073355;28;20024;-50
2022/04/23 00:53:13;;;;;;;6.05;3.20;;;22.00;99.90;;;;;;5073192;28;20498;-50
2022/04/23 00:55:39;;;;;;;4.82;3.45;;;22.00;99.90;;;;;;5070904;28;20040;-50
2022/04/23 00:58:05;;;;;;;5.32;3.25;;;22.00;99.90;;;;;;5073033;28;20029;-50
2022/04/23 01:00:31;;;;;;;4.57;3.00;;;22.00;99.90;;;;;;5073645;28;20383;-50
2022/04/23 01:02:56;;;;;;;5.82;3.83;;;22.00;99.90;;;;;;5072959;28;20040;-50
2022/04/23 01:05:23;;;;;;;4.82;3.17;;;22.00;99.90;;;;;;5072772;28;20032;-50
2022/04/23 01:07:52;;;;;;;7.68;4.28;;;22.00;99.90;;;;;;5072685;28;20044;-49
2022/04/23 01:10:18;;;;;;;5.47;3.47;;;22.00;99.90;;;;;;5072787;28;20020;-49
2022/04/23 01:12:47;;;;;;;5.05;3.28;;;22.00;99.90;;;;;;5072872;28;20089;-50
2022/04/23 01:15:16;;;;;;;7.53;3.63;;;22.00;99.90;;;;;;5072872;28;20085;-49
2022/04/23 01:17:42;;;;;;;5.85;3.67;;;22.00;99.90;;;;;;5072681;28;20020;-49
2022/04/23 01:20:13;;;;;;;4.95;3.33;;;22.00;99.90;;;;;;5072747;28;20051;-49
2022/04/23 01:22:43;;;;;;;5.75;3.80;;;22.00;99.90;;;;;;5072397;28;20047;-50
2022/04/23 01:25:12;;;;;;;6.32;3.90;;;22.00;99.90;;;;;;5072662;28;20071;-49
2022/04/23 01:27:42;;;;;;;5.95;3.47;;;22.00;99.90;;;;;;5072399;28;20020;-49
2022/04/23 01:30:12;;;;;;;5.95;3.33;;;22.00;99.90;;;;;;5072509;28;20029;-50
2022/04/23 01:32:38;;;;;;;5.53;3.30;;;22.00;99.90;;;;;;5071995;28;20045;-49
2022/04/23 01:35:05;;;;;;;5.40;3.78;;;22.00;99.90;;;;;;5071246;28;20020;-49
2022/04/23 01:37:31;;;;;;;4.45;3.67;;;22.00;99.90;;;;;;5072494;28;20047;-49
2022/04/23 01:39:57;;;;;;;5.13;3.50;;;22.00;99.90;;;;;;5072315;28;20039;-50
2022/04/23 01:42:23;;;;;;;7.10;4.10;;;22.00;99.90;;;;;;5072085;28;20033;-49
2022/04/23 01:44:51;;;;;;;5.32;3.53;;;22.00;99.90;;;;;;5072127;28;20198;-49
2022/04/23 01:47:18;;;;;;;5.05;3.38;;;22.00;99.90;;;;;;5072110;28;20047;-49
2022/04/23 01:49:44;;;;;;;6.78;3.90;;;22.00;99.90;;;;;;5071981;28;20024;-50
2022/04/23 01:52:11;;;;;;;5.10;3.40;;;22.00;99.90;;;;;;5072217;28;20035;-50
2022/04/23 01:54:37;;;;;;;5.57;3.30;;;22.00;99.90;;;;;;5072022;28;20031;-50
2022/04/23 01:57:04;;;;;;;5.60;3.40;;;22.00;99.90;;;;;;5071988;28;20059;-50
2022/04/23 01:59:30;;;;;;;5.20;3.53;;;22.00;99.90;;;;;;5072597;28;20025;-50
2022/04/23 02:01:57;;;;;;;4.13;2.97;;;22.00;99.90;;;;;;5071763;28;20040;-50
2022/04/23 02:04:22;;;;;;;5.53;2.90;;;21.90;99.90;;;;;;5071738;28;20056;-49
2022/04/23 02:06:48;;;;;;;6.43;3.70;;;21.90;99.90;;;;;;5071823;28;20052;-49
2022/04/23 02:09:14;;;;;;;4.78;3.72;;;22.00;99.90;;;;;;5071563;28;20025;-50
2022/04/23 02:11:41;;;;;;;5.43;3.35;;;22.00;99.90;;;;;;5071670;28;20027;-49
2022/04/23 02:14:07;;;;;;;6.15;3.65;;;21.90;99.90;;;;;;5071772;28;20104;-49
2022/04/23 02:16:33;;;;;;;5.70;3.45;;;21.90;99.90;;;;;;5071697;28;20447;-49
2022/04/23 02:18:59;;;;;;;6.05;3.80;;;21.90;99.90;;;;;;5071530;28;20036;-49
2022/04/23 02:21:25;;;;;;;4.15;3.08;;;22.00;99.90;;;;;;5071515;28;20043;-50
2022/04/23 02:23:53;;;;;;;5.60;3.28;;;21.90;99.90;;;;;;5071557;28;20025;-50
2022/04/23 02:26:22;;;;;;;4.05;2.80;;;21.90;99.90;;;;;;5071488;28;20020;-50
2022/04/23 02:28:49;;;;;;;6.53;3.40;;;21.90;99.90;;;;;;5071395;28;20444;-49
2022/04/23 02:31:15;;;;;;;5.68;3.78;;;21.90;99.90;;;;;;5071259;28;20028;-50
2022/04/23 02:33:41;;;;;;;5.35;3.08;;;21.90;99.90;;;;;;5071384;28;20030;-50
2022/04/23 02:36:08;;;;;;;6.22;3.83;;;21.90;99.90;;;;;;5070212;28;20032;-48
2022/04/23 02:38:34;;;;;;;4.80;3.37;;;21.90;99.90;;;;;;5071549;28;20024;-51
2022/04/23 02:41:00;;;;;;;6.53;3.88;;;21.90;99.90;;;;;;5071295;28;20020;-51
2022/04/23 02:43:26;;;;;;;5.00;3.60;;;21.90;99.90;;;;;;5070087;28;20090;-50
2022/04/23 02:45:52;;;;;;;6.03;3.53;;;21.90;99.90;;;;;;5071237;28;20028;-49
2022/04/23 02:48:18;;;;;;;5.25;3.58;;;21.90;99.90;;;;;;5071288;28;20024;-49
2022/04/23 02:50:44;;;;;;;6.60;3.22;;;21.90;99.90;;;;;;5071264;28;20492;-50
2022/04/23 02:53:10;;;;;;;5.30;3.08;;;21.90;99.90;;;;;;5071216;28;20487;-51
2022/04/23 02:55:38;;;;;;;5.93;3.38;;;21.90;99.90;;;;;;5071490;28;20029;-51
2022/04/23 02:58:07;;;;;;;4.78;3.33;;;21.90;99.90;;;;;;5071291;28;20468;-51
2022/04/23 03:00:34;;;;;;;4.13;2.80;;;21.80;99.90;;;;;;5071957;28;20503;-51
2022/04/23 03:03:00;;;;;;;4.38;2.83;;;21.90;99.90;;;;;;5075236;28;20040;-51
2022/04/23 03:05:26;;;;;;;4.95;3.10;;;21.90;99.90;;;;;;5075256;28;20021;-51
2022/04/23 03:07:55;;;;;;;5.20;3.42;;;21.90;99.90;;;;;;5075033;28;20028;-49
2022/04/23 03:10:21;;;;;;;4.38;2.75;;;21.90;99.90;;;;;;5075052;28;20020;-50
2022/04/23 03:12:47;;;;;;;4.72;2.95;;;21.90;99.90;;;;;;5075129;28;20379;-50
2022/04/23 03:15:16;;;;;;;3.90;2.53;;;21.90;99.90;;;;;;5073763;28;20029;-51
2022/04/23 03:17:43;;;;;;;4.28;2.75;;;21.90;99.90;;;;;;5075070;28;20028;-50
2022/04/23 03:20:10;;;;;;;4.22;2.78;;;21.90;99.90;;;;;;5075147;28;20074;-48
2022/04/23 03:22:39;;;;;;;5.32;3.17;;;21.90;99.90;;;;;;5074992;28;20029;-50
2022/04/23 03:25:10;;;;;;;4.35;2.60;;;21.90;99.90;;;;;;5075020;28;20089;-49
2022/04/23 03:27:36;;;;;;;4.35;2.97;;;21.90;99.90;;;;;;5075048;28;20025;-49
2022/04/23 03:30:03;;;;;;;3.70;3.03;;;21.90;99.90;;;;;;5074861;28;20392;-49
2022/04/23 03:32:29;;;;;;;4.85;3.10;;;21.90;99.90;;;;;;5074467;28;20546;-51
2022/04/23 03:34:54;;;;;;;4.72;3.47;;;21.90;99.90;;;;;;5074732;28;20064;-50
2022/04/23 03:37:21;;;;;;;4.18;2.78;;;21.90;99.90;;;;;;5074646;28;20024;-50
2022/04/23 03:39:48;;;;;;;5.57;3.23;;;21.90;99.90;;;;;;5074874;28;20017;-50
2022/04/23 03:42:14;;;;;;;5.03;2.65;;;21.90;99.90;;;;;;5074545;28;20064;-50
2022/04/23 03:44:40;;;;;;;3.47;2.40;;;21.90;99.90;;;;;;5074640;28;20301;-50
2022/04/23 03:47:06;;;;;;;5.20;2.78;;;21.90;99.90;;;;;;5074549;28;20079;-50
2022/04/23 03:49:31;;;;;;;4.28;2.95;;;21.90;99.90;;;;;;5074272;28;20032;-50
2022/04/23 03:51:58;;;;;;;4.10;2.80;;;21.90;99.90;;;;;;5074271;28;20032;-50
2022/04/23 03:54:24;;;;;;;4.88;2.70;;;21.90;99.90;;;;;;5074300;28;20024;-49
2022/04/23 03:56:50;;;;;;;3.75;2.38;;;21.90;99.90;;;;;;5074226;28;20116;-49
2022/04/23 04:01:53;;;;;;;4.38;2.67;;;21.90;99.90;;;;;;5071937;28;20071;-53
2022/04/23 04:04:19;;;;;;;4.53;2.83;;;21.90;99.90;;;;;;5074314;28;20024;-53
2022/04/23 04:06:45;;;;;;;3.92;2.55;;;21.90;99.90;;;;;;5074038;28;20032;-52
2022/04/23 04:09:12;;;;;;;4.50;2.90;;;21.90;99.90;;;;;;5072804;28;20017;-52
2022/04/23 04:14:22;;;;;;;3.72;2.55;;;21.80;99.90;;;;;;5074038;28;20137;-53
2022/04/23 04:16:49;;;;;;;4.03;2.78;;;21.90;99.90;;;;;;5073933;28;20045;-53
2022/04/23 04:19:15;;;;;;;3.50;2.42;;;21.90;99.90;;;;;;5073852;28;20025;-53
2022/04/23 04:21:46;;;;;;;4.65;2.38;;;21.80;99.90;;;;;;5073861;28;20074;-53
2022/04/23 04:24:13;;;;;;;5.10;3.00;;;21.80;99.90;;;;;;5074007;28;20161;-53
2022/04/23 04:26:43;;;;;;;4.25;2.40;;;21.90;99.90;;;;;;5073894;28;20360;-53
2022/04/23 04:29:13;;;;;;;4.45;2.60;;;21.90;99.90;;;;;;5073724;28;20388;-52
2022/04/23 04:31:51;;;;;;;6.97;2.78;;;21.90;99.90;;;;;;5073875;28;20024;-53
2022/04/23 04:34:19;;;;;;;4.65;2.47;;;21.90;99.90;;;;;;5073584;28;20074;-53
2022/04/23 04:36:47;;;;;;;3.63;2.45;;;21.90;99.90;;;;;;5073733;28;20384;-53
2022/04/23 04:39:13;;;;;;;4.85;2.97;;;21.90;99.90;;;;;;5073783;28;20431;-53
2022/04/23 04:41:39;;;;;;;5.32;2.60;;;21.90;99.90;;;;;;5073467;28;20047;-53
2022/04/23 04:44:05;;;;;;;4.43;2.95;;;21.90;99.90;;;;;;5073529;28;20095;-53
2022/04/23 04:46:32;;;;;;;4.63;2.75;;;21.90;99.90;;;;;;5073345;28;20100;-53
2022/04/23 04:48:58;;;;;;;3.80;2.30;;;21.90;99.90;;;;;;5073421;28;20108;-53
2022/04/23 04:51:24;;;;;;;6.20;2.75;;;21.90;99.90;;;;;;5073334;28;20108;-53
2022/04/23 04:53:53;;;;;;;5.78;2.35;;;21.90;99.90;;;;;;5073168;28;20016;-53
2022/04/23 04:56:19;;;;;;;3.63;2.42;;;21.90;99.90;;;;;;5072999;28;20024;-53
2022/04/23 04:58:46;;;;;;;3.92;2.25;;;21.90;99.90;;;;;;5073085;28;20040;-53
2022/04/23 05:01:13;;;;;;;6.38;2.47;;;21.90;99.90;;;;;;5072966;28;20381;-53
2022/04/23 05:03:40;;;;;;;4.55;2.50;;;21.80;99.90;;;;;;5072976;28;20531;-53
2022/04/23 05:06:09;;;;;;;3.92;2.40;;;21.90;99.90;;;;;;5073145;28;20055;-53
2022/04/23 05:08:36;;;;;;;3.75;2.20;;;21.90;99.90;;;;;;5072988;28;20060;-53
2022/04/23 05:11:02;;;;;;;3.75;2.13;;;21.90;99.90;;;;;;5072865;28;20013;-53
2022/04/23 05:13:28;;;;;;;3.72;2.35;;;21.80;99.90;;;;;;5071589;28;20036;-53
2022/04/23 05:15:54;;;;;;;4.32;2.60;;;21.80;99.90;;;;;;5072679;28;20021;-53
2022/04/23 05:18:19;;;;;;;3.72;2.20;;;21.80;99.90;;;;;;5072727;28;20029;-52
2022/04/23 05:20:45;;;;;;;2.33;1.92;;;21.90;99.90;;;;;;5072851;28;20020;-52
2022/04/23 05:23:11;;;;;;;4.95;2.00;;;21.80;99.90;;;;;;5072315;28;20032;-52
2022/04/23 05:25:37;;;;;;;4.88;2.70;;;21.80;99.90;;;;;;5072344;28;20108;-52
2022/04/23 05:28:03;;;;;;;4.03;2.17;;;21.80;99.90;;;;;;5071218;28;20020;-53
2022/04/23 05:30:29;;;;;;;4.55;2.25;;;21.80;99.90;;;;;;5072399;28;20020;-52
2022/04/23 05:32:54;;;;;;;4.82;2.38;;;21.80;99.90;;;;;;5072569;28;20024;-52
2022/04/23 05:35:20;;;;;;;3.60;2.28;;;21.80;99.90;;;;;;5072384;28;20100;-52
2022/04/23 05:37:46;;;;;;;3.80;2.22;;;21.80;99.90;;;;;;5072639;28;20021;-52
2022/04/23 05:40:12;;;;;;;3.70;2.25;;;21.80;99.90;;;;;;5072588;28;20024;-52
2022/04/23 05:42:39;;;;;;;5.85;2.10;;;21.80;99.90;;;;;;5072131;28;20062;-52
2022/04/23 05:45:05;;;;;;;4.97;1.83;;;21.80;99.90;;;;;;5072059;28;20383;-52
2022/04/23 05:47:31;;;;;;;3.35;1.98;;;21.80;99.90;;;;;;5072244;28;20067;-53
2022/04/23 05:49:56;;;;;;;3.38;2.00;;;21.80;99.90;;;;;;5070744;28;20048;-52
2022/04/23 05:52:22;;;;;;;3.17;2.25;;;21.80;99.90;;;;;;5072137;28;20025;-52
2022/04/23 05:54:48;;;;;;;2.78;2.10;;;21.80;99.90;;;;;;5072143;28;20375;-52
2022/04/23 05:57:15;;;;;;;2.85;1.85;;;21.80;99.90;;;;;;5072190;28;20039;-53
2022/04/23 05:59:41;;;;;;;3.63;1.83;;;21.80;99.90;;;;;;5071807;28;20020;-53
2022/04/23 06:02:08;;;;;;;3.15;1.73;;;21.80;99.90;;;;;;5071669;28;20508;-53
2022/04/23 06:04:33;;;;;;;4.18;2.03;;;21.80;99.90;;;;;;5071798;28;20081;-53
2022/04/23 06:06:59;;;;;;;4.18;2.03;;;21.80;99.90;;;;;;5071726;28;20060;-53
2022/04/23 06:09:25;;;;;;;2.38;1.75;;;21.80;99.90;;;;;;5071789;28;20036;-53
2022/04/23 06:11:51;;;;;;;3.28;2.28;;;21.80;99.90;;;;;;5071778;28;20437;-53
2022/04/23 06:14:16;;;;;;;2.67;1.80;;;21.80;99.90;;;;;;5071812;28;20384;-53
2022/04/23 06:16:42;;;;;;;2.80;2.05;;;21.80;99.90;;;;;;5071596;28;20506;-53
2022/04/23 06:19:08;;;;;;;3.20;1.90;;;21.80;99.90;;;;;;5070231;28;20089;-53
2022/04/23 06:21:34;;;;;;;2.63;1.75;;;21.80;99.90;;;;;;5071500;28;20040;-53
2022/04/23 06:24:00;;;;;;;4.22;1.77;;;21.80;99.90;;;;;;5071668;28;20036;-53
2022/04/23 06:26:26;;;;;;;3.13;2.05;;;21.80;99.90;;;;;;5071485;28;20476;-52
2022/04/23 06:28:51;;;;;;;2.65;1.88;;;21.80;99.90;;;;;;5071421;28;20017;-53
2022/04/23 06:31:17;;;;;;;3.03;2.05;;;21.80;99.90;;;;;;5071612;28;20032;-53
2022/04/23 06:33:43;;;;;;;3.05;1.90;;;21.80;99.90;;;;;;5071335;28;20021;-53
2022/04/23 06:36:13;;;;;;;3.67;1.60;;;21.80;99.90;;;;;;5070544;28;20027;-52
2022/04/23 06:38:39;;;;;;;4.03;2.03;;;21.80;99.90;;;;;;5071311;28;20024;-52
2022/04/23 06:41:05;;;;;;;3.55;1.80;;;21.80;99.90;;;;;;5071048;28;20402;-53
2022/04/23 06:43:31;;;;;;;3.28;1.80;;;21.80;99.90;;;;;;5071308;28;20028;-53
2022/04/23 06:45:57;;;;;;;2.95;1.88;;;21.80;99.90;;;;;;5071170;28;20079;-52
2022/04/23 06:48:23;;;;;;;3.20;2.10;;;21.80;99.90;;;;;;5071244;28;20056;-52
2022/04/23 06:50:49;;;;;;;2.53;1.65;;;21.80;99.90;;;;;;5071504;28;20478;-53
2022/04/23 06:53:14;;;;;;;3.83;1.90;;;21.80;99.90;;;;;;5071049;28;20025;-52
2022/04/23 06:55:40;;;;;;;2.90;1.98;;;21.80;99.90;;;;;;5071139;28;20025;-52
2022/04/23 06:58:06;;;;;;;3.20;2.28;;;21.80;99.90;;;;;;5069972;28;20024;-53
2022/04/23 07:00:32;;;;;;;7.10;2.53;;;21.80;99.90;;;;;;5070902;28;20049;-53
2022/04/23 07:02:58;;;;;;;4.75;3.22;;;21.80;99.90;;;;;;5071124;28;20043;-53
2022/04/23 07:05:23;;;;;;;3.65;2.42;;;21.80;99.90;;;;;;5070959;28;20053;-53
2022/04/23 07:08:01;;;;;;;3.58;2.28;;;21.80;99.90;;;;;;5071256;28;20025;-53
2022/04/23 07:10:28;;;;;;;4.90;2.08;;;21.80;99.90;;;;;;5071030;28;20020;-53
2022/04/23 07:12:54;;;;;;;2.78;1.92;;;21.80;99.90;;;;;;5071022;28;20051;-53
2022/04/23 07:15:22;;;;;;;3.45;2.20;;;21.80;99.90;;;;;;5071088;28;20025;-53
2022/04/23 07:17:49;;;;;;;4.07;2.70;;;21.80;99.90;;;;;;5071125;28;20028;-53
2022/04/23 07:20:18;;;;;;;4.13;2.90;;;21.80;99.90;;;;;;5070961;28;20025;-53
2022/04/23 07:25:33;;;;;;;4.40;2.20;;;21.80;99.90;;;;;;5070920;28;20032;-53
2022/04/23 07:28:00;;;;;;;4.60;2.67;;;21.80;99.90;;;;;;5069560;28;20024;-53
2022/04/23 07:30:26;;;;;;;5.20;2.65;;;21.80;99.90;;;;;;5070752;28;20105;-53
2022/04/23 07:32:57;;;;;;;3.83;2.42;;;21.80;99.90;;;;;;5070945;28;20384;-53
2022/04/23 07:38:21;;;;;;;5.25;2.45;;;21.80;99.90;;;;;;5070949;28;20478;-53
2022/04/23 07:40:49;;;;;;;3.75;2.58;;;21.80;99.90;;;;;;5070666;28;20468;-53
2022/04/23 07:43:16;;;;;;;4.90;2.58;;;21.90;99.90;;;;;;5070436;28;20036;-53
2022/04/23 07:45:44;;;;;;;3.90;2.67;;;21.80;99.90;;;;;;5070319;28;20028;-53
2022/04/23 07:48:11;;;;;;;4.00;2.88;;;21.90;99.90;;;;;;5073367;28;20476;-53
2022/04/23 07:50:39;;;;;;;4.75;2.67;;;21.90;99.90;;;;;;5074213;28;20426;-53
2022/04/23 07:53:09;;;;;;;4.25;2.58;;;21.90;99.90;;;;;;5074302;28;20378;-53
2022/04/23 07:55:38;;;;;;;3.72;2.30;;;21.90;99.90;;;;;;5074210;28;20464;-53
2022/04/23 07:58:04;;;;;;;3.50;2.90;;;21.90;99.90;;;;;;5074200;28;20137;-52
2022/04/23 08:00:36;;;;;;;4.75;3.17;;;21.90;99.90;;;;;;5073969;28;20032;-53
2022/04/23 08:03:03;;;;;;;4.95;2.90;;;21.90;99.90;;;;;;5073976;28;20032;-53
2022/04/23 08:05:32;;;;;;;4.35;2.65;;;21.90;99.90;;;;;;5074032;28;20024;-53
2022/04/23 08:07:59;;;;;;;6.05;2.83;;;21.90;99.90;;;;;;5073965;28;20035;-53
2022/04/23 08:10:25;;;;;;;3.30;2.30;;;21.90;99.90;;;;;;5074155;28;20025;-53
2022/04/23 08:12:51;;;;;;;5.35;2.90;;;21.90;99.90;;;;;;5074162;28;20040;-52
2022/04/23 08:15:17;;;;;;;5.43;2.70;;;21.90;99.90;;;;;;5073830;28;20020;-53
2022/04/23 08:17:43;;;;;;;3.63;2.30;;;21.90;99.90;;;;;;5073926;28;20411;-53
2022/04/23 08:20:10;;;;;;;9.32;4.15;;;22.00;99.90;;;;;;5073831;28;20020;-53
2022/04/23 08:22:36;;;;;;;4.45;2.92;;;22.00;99.90;;;;;;5073616;28;20044;-53
2022/04/23 08:25:02;;;;;;;3.75;2.30;;;22.00;99.90;;;;;;5073730;28;20020;-53
2022/04/23 08:27:28;;;;;;;4.18;2.63;;;22.00;99.90;;;;;;5072401;28;20025;-53
2022/04/23 08:32:38;;;;;;;3.65;2.80;;;22.00;99.90;;;;;;5073442;28;20040;-53
2022/04/23 08:35:08;;;;;;;3.10;2.50;;;22.00;99.90;;;;;;5073482;28;20039;-53
2022/04/23 08:37:34;;;;;;;3.72;2.33;;;21.90;99.90;;;;;;5073513;28;20043;-53
2022/04/23 08:40:01;;;;;;;4.18;2.67;;;22.00;99.90;;;;;;5073280;28;20108;-53
2022/04/23 08:42:26;;;;;;;7.00;3.08;;;22.00;99.90;;;;;;5073446;28;20032;-53
2022/04/23 08:44:53;;;;;;;5.70;3.15;;;22.00;99.90;;;;;;5073542;28;20043;-53
2022/04/23 08:47:22;;;;;;;3.67;2.80;;;22.00;99.90;;;;;;5073183;28;20025;-53
2022/04/23 08:49:56;;;;;;;4.20;2.85;;;22.00;99.90;;;;;;5073122;28;20460;-53
2022/04/23 08:52:31;;;;;;;3.88;2.53;;;22.00;99.90;;;;;;5071878;28;20427;-53
2022/04/23 08:55:01;;;;;;;4.68;3.00;;;22.00;99.90;;;;;;5073216;28;20491;-53
2022/04/23 08:57:28;;;;;;;4.72;2.90;;;22.00;99.90;;;;;;5073301;28;20040;-53
2022/04/23 08:59:56;;;;;;;7.07;3.38;;;22.00;99.90;;;;;;5072201;28;20044;-53
2022/04/23 09:02:23;;;;;;;;;;;22.00;99.90;;;;;;5072058;28;20183;-53
2022/04/23 09:04:49;;;;;;;5.18;3.53;;;22.00;99.90;;;;;;5073007;28;20359;-53
2022/04/23 09:07:22;;;;;;;3.90;2.40;;;22.10;99.90;;;;;;5072935;28;20469;-53
2022/04/23 09:09:52;;;;;;;4.47;2.72;;;22.10;99.90;;;;;;5072925;28;20013;-53
2022/04/23 09:12:19;;;;;;;4.05;3.00;;;22.10;99.90;;;;;;5073061;28;20028;-53
2022/04/23 09:14:45;;;;;;;4.63;3.00;;;22.10;99.90;;;;;;5071683;28;20021;-51
2022/04/23 09:25:43;;;;;;;5.40;3.25;;;22.10;99.90;;;;;;5072729;28;20032;-51
2022/04/23 09:28:19;;;;;;;5.13;2.95;;;22.10;99.90;;;;;;5072546;28;20024;-51
2022/04/23 09:30:47;;;;;;;3.92;2.40;;;22.10;99.90;;;;;;5072408;28;20545;-51
2022/04/23 09:33:13;;;;;;;5.40;2.95;;;22.10;99.90;;;;;;5070905;28;20031;-51
2022/04/23 09:35:56;;;;;;;4.82;3.20;;;22.10;99.90;;;;;;5070814;28;20024;-52
2022/04/23 09:38:22;;;;;;;5.07;3.17;;;22.10;99.90;;;;;;5072102;28;20017;-52
2022/04/23 09:40:55;;;;;;;4.07;2.80;;;22.10;99.90;;;;;;5072154;28;20145;-52
2022/04/23 09:43:30;;;;;;;6.03;3.50;;;22.10;99.90;;;;;;5072002;28;20040;-52
2022/04/23 09:46:01;;;;;;;5.55;3.28;;;22.10;99.90;;;;;;5072163;28;20036;-52
2022/04/23 09:48:27;;;;;;;4.85;2.65;;;22.20;99.90;;;;;;5071040;28;20111;-51
2022/04/23 09:50:53;;;;;;;4.60;2.90;;;22.20;99.90;;;;;;5072075;28;20455;-52
2022/04/23 09:53:20;;;;;;;3.28;2.65;;;22.20;99.90;;;;;;5071847;28;20036;-52
2022/04/23 09:55:48;;;;;;;4.72;2.88;;;22.20;99.90;;;;;;5071888;28;20124;-52
2022/04/23 09:58:15;;;;;;;5.32;3.10;;;22.20;99.90;;;;;;5071798;28;20055;-52
2022/04/23 10:00:46;;;;;;;4.22;2.65;;;22.20;99.90;;;;;;5071580;28;20044;-52
2022/04/23 10:03:13;;;;;;;4.30;2.63;;;22.20;99.90;;;;;;5071506;28;20047;-52
2022/04/23 10:05:49;;;;;;;5.85;2.97;;;22.20;99.90;;;;;;5071578;28;20070;-52
2022/04/23 10:08:22;;;;;;;3.85;2.10;;;22.20;99.90;;;;;;5071784;28;20078;-52
2022/04/23 10:10:56;;;;;;;3.60;2.55;;;22.20;99.90;;;;;;5071467;28;20020;-52
2022/04/23 10:13:25;;;;;;;6.13;2.60;;;22.30;99.90;;;;;;5071662;28;20032;-52
2022/04/23 10:15:54;;;;;;;5.38;2.83;;;22.30;99.90;;;;;;5071481;28;20023;-52
2022/04/23 10:18:20;;;;;;;3.60;2.63;;;22.30;99.90;;;;;;5071351;28;20070;-52
2022/04/23 10:20:58;;;;;;;3.42;2.70;;;22.40;99.90;;;;;;5071227;28;20024;-52
2022/04/23 10:23:58;;;;;;;3.05;1.90;;;22.40;99.90;;;;;;5071401;28;20320;-52
2022/04/23 10:26:34;;;;;;;5.78;2.97;;;22.50;99.90;;;;;;5070036;28;20024;-52
2022/04/23 10:29:01;;;;;;;3.85;2.38;;;22.50;99.90;;;;;;5071560;28;20486;-52
2022/04/23 10:31:27;;;;;;;3.05;2.28;;;22.50;99.90;;;;;;5071416;28;20046;-51
2022/04/23 10:33:53;;;;;;;3.08;2.22;;;22.50;99.90;;;;;;5071364;28;20111;-52
2022/04/23 10:36:20;;;;;;;3.08;1.90;;;22.60;99.90;;;;;;5071324;28;20028;-52
2022/04/23 10:38:51;;;;;;;;;;;22.60;99.90;;;;;;5071461;28;20028;-52
2022/04/23 10:41:22;;;;;;;5.20;2.78;;;22.60;99.90;;;;;;5070894;28;19908;-52
2022/04/23 10:43:54;;;;;;;7.28;2.95;;;22.60;99.90;;;;;;5071188;28;20613;-51
2022/04/23 10:46:41;;;;;;;5.25;2.83;;;22.60;99.90;;;;;;5071008;28;20090;-51
2022/04/23 10:49:23;;;;;;;6.53;3.08;;;22.60;99.90;;;;;;5071145;28;20353;-51
2022/04/23 10:51:53;;;;;;;6.35;3.38;;;22.60;99.90;;;;;;5071167;28;20021;-53
2022/04/23 10:54:38;;;;;;;5.68;3.20;;;22.60;99.90;;;;;;5070946;28;20032;-53
2022/04/23 10:57:07;;;;;;;6.35;3.35;;;22.60;99.90;;;;;;5071278;28;20480;-53
2022/04/23 10:59:49;;;;;;;6.20;3.42;;;22.60;99.90;;;;;;5071075;28;20499;-54
2022/04/23 11:02:21;;;;;;;5.10;3.33;;;22.60;99.90;;;;;;5069635;28;20035;-54
2022/04/23 11:13:27;;;;;;;5.32;2.88;;;22.60;99.90;;;;;;5071247;28;20059;-53
2022/04/23 11:16:16;;;;;;;5.38;2.72;;;22.60;99.90;;;;;;5070876;28;20028;-53
2022/04/23 11:18:44;;;;;;;7.55;3.95;;;22.60;99.90;;;;;;5070874;28;20105;-53
2022/04/23 11:21:24;;;;;;;6.00;3.90;;;22.60;99.90;;;;;;5070842;28;20440;-54
2022/04/23 11:23:51;;;;;;;6.30;4.10;;;22.50;99.90;;;;;;5074778;28;20031;-54
2022/04/23 11:26:19;;;;;;;8.55;4.70;;;22.60;99.90;;;;;;5074926;28;20505;-53
2022/04/23 11:28:46;;;;;;;6.35;4.75;;;22.60;99.90;;;;;;5074834;28;20052;-54
2022/04/23 11:31:16;;;;;;;11.20;7.03;;;22.50;99.90;;;;;;5074716;28;20021;-52
2022/04/23 11:33:59;;;;;;;9.25;5.88;;;22.50;99.90;;;;;;5074691;28;20384;-52
2022/04/23 11:36:30;;;;;;;9.95;5.35;;;22.50;99.90;;;;;;5074705;28;20024;-52
2022/04/23 11:38:57;;;;;;;7.32;5.47;;;22.50;99.90;;;;;;5074425;28;20028;-52
2022/04/23 11:41:29;;;;;;;11.73;5.20;;;22.50;99.90;;;;;;5074501;28;20519;-52
2022/04/23 11:43:55;;;;;;;7.32;4.47;;;22.50;99.90;;;;;;5055774;28;20503;-53
2022/04/23 11:46:21;;;;;;;10.98;5.43;;;22.50;99.90;;;;;;5053600;28;20112;-52
2022/04/23 11:48:48;;;;;;;9.00;5.10;;;22.50;99.90;;;;;;5053764;28;20035;-53
2022/04/23 11:51:20;;;;;;;12.07;5.82;;;22.50;99.90;;;;;;5054405;28;20437;-53
2022/04/23 11:53:58;;;;;;;12.50;5.68;;;22.50;99.90;;;;;;5054254;28;20037;-52
2022/04/23 11:56:36;;;;;;;10.90;6.00;;;22.50;99.90;;;;;;5053294;28;20031;-53
2022/04/23 11:59:11;;;;;;;9.70;5.88;;;22.50;99.90;;;;;;5066989;28;20029;-54
2022/04/23 12:01:40;;;;;;;10.38;5.85;;;22.50;99.90;;;;;;5064424;28;20488;-55
2022/04/23 12:04:06;;;;;;;12.70;5.68;;;22.50;99.90;;;;;;5059126;28;20028;-53
2022/04/23 12:06:46;;;;;;;12.73;5.85;;;22.50;99.90;;;;;;5054202;28;20028;-53
2022/04/23 12:09:12;;;;;;;13.18;5.63;;;22.50;99.90;;;;;;5054006;28;20378;-53
2022/04/23 12:11:39;;;;;;;9.48;6.15;;;22.50;99.90;;;;;;5052080;28;20021;-53
2022/04/23 12:14:05;;;;;;;12.27;6.15;;;22.40;99.90;;;;;;5060950;28;20044;-53
2022/04/23 12:16:38;;;;;;;10.60;5.68;;;22.50;99.90;;;;;;5066263;28;20040;-53
2022/04/23 12:19:09;;;;;;;13.25;6.15;;;22.50;99.90;;;;;;5063616;28;20032;-53
2022/04/23 12:21:37;;;;;;;12.15;5.82;;;22.50;99.90;;;;;;5060348;28;20028;-53
2022/04/23 12:24:04;;;;;;;12.05;8.05;;;22.50;99.90;;;;;;5059680;28;20025;-53
2022/04/23 12:26:37;;;;;;;14.40;7.63;;;22.50;99.90;;;;;;5067865;28;20017;-53
2022/04/23 12:43:18;;;;;;;14.55;4.93;;;22.70;99.90;;;;;;5059194;28;20459;-54
2022/04/23 12:45:44;;;;;;;12.45;4.57;;;22.70;99.90;;;;;;5053703;28;20020;-55
2022/04/23 12:48:12;;;;;;;8.07;5.15;;;22.70;99.90;;;;;;5053910;28;20024;-54
2022/04/23 12:50:38;;;;;;;;;;;22.70;99.90;;;;;;5053303;28;20021;-54
2022/04/23 12:53:04;;;;;;;7.30;3.67;;;22.70;99.90;;;;;;5052503;28;19995;-54
2022/04/23 12:55:35;;;;;;;7.50;3.95;;;22.70;99.90;;;;;;5051945;28;20021;-53
2022/04/23 12:58:04;;;;;;;8.27;3.42;;;22.70;99.90;;;;;;5054386;28;20483;-52
2022/04/23 13:00:33;;;;;;;5.82;3.45;;;22.70;99.90;;;;;;5056084;28;20052;-53
2022/04/23 13:03:09;;;;;;;5.35;3.05;;;22.70;99.90;;;;;;5064459;28;20036;-53
2022/04/23 13:05:35;;;;;;;7.32;3.22;;;22.80;99.90;;;;;;5071440;28;20021;-53
2022/04/23 13:10:46;;;;;;;9.77;3.05;;;22.80;99.90;;;;;;5074242;28;20023;-52
2022/04/23 13:13:12;;;;;;;5.70;2.53;;;22.80;99.90;;;;;;5078652;28;20099;-53
2022/04/23 13:15:39;;;;;;;4.78;2.42;;;22.80;99.90;;;;;;5070764;28;20044;-53
2022/04/23 13:18:06;;;;;;;6.18;2.67;;;22.80;99.90;;;;;;5070080;28;20044;-52
2022/04/23 13:20:31;;;;;;;7.55;3.10;;;22.90;99.90;;;;;;5066375;28;20490;-52
2022/04/23 13:22:59;;;;;;;8.23;3.13;;;22.90;99.90;;;;;;5070376;28;20044;-51
2022/04/23 13:25:25;;;;;;;8.27;3.33;;;22.90;99.90;;;;;;5073658;28;20020;-52
2022/04/23 13:27:51;;;;;;;6.30;2.65;;;22.90;99.90;;;;;;5067925;28;20091;-52
2022/04/23 13:30:18;;;;;;;9.68;3.20;;;23.00;99.90;;;;;;5071660;28;20028;-52
2022/04/23 13:32:46;;;;;;;10.95;3.10;;;23.00;99.90;;;;;;5067678;28;20059;-52
2022/04/23 13:35:14;;;;;;;6.78;3.28;;;23.00;99.90;;;;;;5073718;28;20427;-52
2022/04/23 13:37:41;;;;;;;6.78;3.15;;;23.00;99.90;;;;;;5076018;28;20032;-52
2022/04/23 13:40:07;;;;;;;6.15;2.80;;;23.00;99.90;;;;;;5069620;28;20012;-52